Airfield :
LOGIN :

Register | Disclaimer

   EN    FR    IT 

 










Legend :    VFR   Marginal VFR   IFR   Intensive IFR   Very Intensive IFR
Visi :
Ceiling :
>= 8 km
>= 3000ft
5 to 8 km
1000 to 3000 ft
1500m to 5 km
500 to 1000 ft
800 to 1500m
200 to 500 ft
< 800m
< 200 ft
Symbols :   Thunderstorms  Fog  Heavy snow  Heavy precipitations  Wind > 20 kt
SIGMETs :     Misc.  Thunderstorms  Icing  Turbulence  Mountain Waves  Volcanic Ashes






- Airport Elevation : 308 ft
- IATA code : POZ


EPPO - Poznan-Lawica

CURRENT METAR :
  • 290600Z 31007KT CAVOK 03/00 Q1014

EXPIRED METARs :
  • 290530Z 30007KT CAVOK 03/M01 Q1014
  • 290500Z 31007KT CAVOK 03/M01 Q1013
  • 290430Z 31007KT CAVOK 03/M01 Q1013
  • 290400Z 31007KT CAVOK 04/M02 Q1013
  • 290330Z 31008KT CAVOK 04/M02 Q1013

TAF TAF EPPO
Valid from the 29 at 06:00 until the 30 at 06:00 UTC


290530Z 2906/3006 34010KT CAVOK
TEMPO 2906/2916 02016G28KT SHRA BKN020CB
PROB30
TEMPO 2912/2916 02026G36KT SHSN BKN014CB
BECMG 3003/3006 27010KT



MET'MAP, your aeronautical weather chart ! - Copyright ORBIFLY December 2007 - Disclaimer

ORBIFLY MET'MAP TEAM :

Programming & Development : Alexandra Zaïnal
Concept & original design : Baudouin d'Aumeries
Assistance for programming : Marc-Olivier Méhu
Technical & hardware support : Manuel Goepfert

Contact : metmap@orbifly.com




SOURCES & CREDITS :

   NOAA